createdAt,value
2024-03-15T00:15:03.794Z,13.2
2024-03-15T01:05:04.727Z,13
2024-03-15T01:25:07.107Z,13.1
2024-03-15T01:35:05.309Z,13.1
2024-03-15T01:45:05.549Z,13
2024-03-15T01:55:05.685Z,13
2024-03-15T02:05:05.908Z,13.1
2024-03-15T02:15:06.100Z,13
2024-03-15T02:25:06.300Z,13.1
2024-03-15T02:35:11.773Z,13.1
2024-03-15T02:55:06.888Z,13.2
2024-03-15T03:15:07.305Z,13.2
2024-03-15T03:35:07.658Z,13.3
2024-03-15T03:45:07.923Z,13.3
2024-03-15T03:55:08.097Z,13.3
2024-03-15T04:05:08.247Z,13.3
2024-03-15T04:25:08.662Z,13.3
2024-03-15T04:35:08.894Z,13.3
2024-03-15T04:45:09.107Z,13.2
2024-03-15T04:55:09.255Z,13.1
2024-03-15T05:05:09.509Z,13.1
2024-03-15T05:15:09.732Z,13
2024-03-15T05:25:09.888Z,13
2024-03-15T05:35:10.091Z,13
2024-03-15T05:45:10.399Z,13
2024-03-15T05:55:10.515Z,13.1
2024-03-15T06:05:10.633Z,13.1
2024-03-15T06:15:11.068Z,13.1
2024-03-15T06:25:11.025Z,13.2
2024-03-15T06:35:11.224Z,13.2
2024-03-15T06:45:11.440Z,13.3
2024-03-15T06:55:11.629Z,13.3
2024-03-15T07:05:11.892Z,13.4
2024-03-15T07:15:12.108Z,13.5
2024-03-15T07:35:12.428Z,13.5
2024-03-15T07:45:13.608Z,13.4
2024-03-15T08:05:13.044Z,13.6
2024-03-15T08:15:13.280Z,13.9
2024-03-15T08:25:13.427Z,14
2024-03-15T08:35:13.604Z,14.1
2024-03-15T08:45:13.806Z,14.2
2024-03-15T08:55:14.047Z,14.1
2024-03-15T09:05:14.166Z,14.1
2024-03-15T09:15:14.379Z,14.1
2024-03-15T09:25:14.600Z,14.2
2024-03-15T09:35:14.779Z,14.2
2024-03-15T09:45:14.957Z,14.2
2024-03-15T09:55:15.254Z,14.5
2024-03-15T10:05:15.337Z,14.8
2024-03-15T10:15:15.617Z,14.9
2024-03-15T10:25:15.725Z,14.9
2024-03-15T10:35:15.922Z,14.9
2024-03-15T10:45:16.203Z,15
2024-03-15T10:55:16.386Z,15
2024-03-15T11:05:16.548Z,15
2024-03-15T11:15:16.763Z,15.3
2024-03-15T11:25:16.990Z,15.3
2024-03-15T11:35:17.104Z,15.3
2024-03-15T11:45:17.332Z,15.5
2024-03-15T12:05:17.688Z,16.1
2024-03-15T12:15:17.927Z,16.5
2024-03-15T12:25:18.109Z,16.8
2024-03-15T12:35:18.260Z,17.2
2024-03-15T12:45:18.581Z,17.4
2024-03-15T12:55:18.652Z,17
2024-03-15T13:15:19.097Z,17
2024-03-15T13:35:19.462Z,16.5
2024-03-15T13:45:19.725Z,16.3
2024-03-15T14:05:20.049Z,15.7
2024-03-15T14:25:20.401Z,15.9
2024-03-15T14:35:20.635Z,16
2024-03-15T14:45:20.840Z,16
2024-03-15T14:55:21.029Z,13.9
2024-03-15T15:05:21.414Z,12.7
2024-03-15T15:15:23.910Z,12.1
2024-03-15T15:35:21.832Z,11.9
2024-03-15T16:05:22.468Z,12.2
2024-03-15T16:15:22.729Z,12.1
2024-03-15T16:25:22.862Z,12.1
2024-03-15T16:35:23.043Z,12.1
2024-03-15T16:45:23.185Z,12
2024-03-15T16:55:23.371Z,11.9
2024-03-15T17:05:23.577Z,11.9
2024-03-15T17:15:23.780Z,11.8
2024-03-15T17:25:23.978Z,11.9
2024-03-15T17:35:24.170Z,11.9
2024-03-15T17:45:24.420Z,11.9
2024-03-15T17:55:24.574Z,11.9
2024-03-15T18:05:24.770Z,11.9
2024-03-15T18:15:24.980Z,11.9
2024-03-15T18:25:25.181Z,11.9
2024-03-15T18:35:25.365Z,11.8
2024-03-15T18:55:25.747Z,11.6
2024-03-15T19:05:25.967Z,11.5
2024-03-15T19:15:26.234Z,11.4
2024-03-15T19:25:26.333Z,11.4
2024-03-15T19:35:26.554Z,11.3
2024-03-15T19:45:26.749Z,11.3
2024-03-15T19:55:26.930Z,11.2
2024-03-15T20:05:27.123Z,11.1
2024-03-15T20:15:27.381Z,11.1
2024-03-15T20:25:27.530Z,11.1
2024-03-15T20:35:27.756Z,11.1
2024-03-15T20:45:27.931Z,11.1
2024-03-15T20:55:28.118Z,11
2024-03-15T21:05:28.359Z,11
2024-03-15T21:15:28.908Z,10.9
2024-03-15T21:25:28.728Z,10.8
2024-03-15T21:35:28.922Z,10.7
2024-03-15T21:45:29.163Z,10.8
2024-03-15T21:55:29.338Z,10.9
2024-03-15T22:05:29.508Z,10.9
2024-03-15T22:25:30.205Z,10.9
2024-03-15T22:35:30.104Z,10.9
2024-03-15T22:55:30.486Z,11
2024-03-15T23:15:30.943Z,11
2024-03-15T23:25:31.091Z,10.9
2024-03-15T23:35:31.314Z,10.8
2024-03-15T23:55:31.719Z,10.9
